createdAt,value
2023-03-24T00:00:34.772Z,5.53
2023-03-24T00:03:02.846Z,5.88
2023-03-24T00:05:30.769Z,5.53
2023-03-24T00:08:02.178Z,5.50
2023-03-24T00:10:34.754Z,6.95
2023-03-24T00:13:02.760Z,6.15
2023-03-24T00:15:30.457Z,5.68
2023-03-24T00:17:58.444Z,5.82
2023-03-24T00:20:26.676Z,10.35
2023-03-24T00:22:58.808Z,5.85
2023-03-24T00:25:29.780Z,5.07
2023-03-24T00:27:58.386Z,4.28
2023-03-24T00:30:26.477Z,6.55
2023-03-24T00:32:54.292Z,3.78
2023-03-24T00:35:21.912Z,4.20
2023-03-24T00:37:51.986Z,5.43
2023-03-24T00:40:20.980Z,5.18
2023-03-24T00:42:49.793Z,3.80
2023-03-24T00:45:23.603Z,4.03
2023-03-24T00:47:54.834Z,5.30
2023-03-24T00:50:26.661Z,6.25
2023-03-24T00:52:55.346Z,3.80
2023-03-24T00:55:23.989Z,5.97
2023-03-24T00:57:51.644Z,4.20
2023-03-24T01:00:24.974Z,7.35
2023-03-24T01:02:56.112Z,5.80
2023-03-24T01:07:56.579Z,4.95
2023-03-24T01:10:26.469Z,5.88
2023-03-24T01:12:58.709Z,3.97
2023-03-24T01:15:33.481Z,5.07
2023-03-24T01:18:03.928Z,4.20
2023-03-24T01:23:02.056Z,5.73
2023-03-24T01:25:30.791Z,4.55
2023-03-24T01:27:58.345Z,4.32
2023-03-24T01:30:27.693Z,4.90
2023-03-24T01:32:55.852Z,5.15
2023-03-24T01:35:28.462Z,6.60
2023-03-24T01:37:58.328Z,4.60
2023-03-24T01:40:29.778Z,5.78
2023-03-24T01:42:58.295Z,5.43
2023-03-24T01:45:52.165Z,3.72
2023-03-24T01:48:30.759Z,4.30
2023-03-24T01:51:10.131Z,2.90
2023-03-24T01:53:39.184Z,4.00
2023-03-24T01:56:07.673Z,5.07
2023-03-24T01:58:42.193Z,5.03
2023-03-24T02:01:17.697Z,4.20
2023-03-24T02:03:48.210Z,6.43
2023-03-24T02:06:16.918Z,4.50
2023-03-24T02:08:55.603Z,5.80
2023-03-24T02:11:31.307Z,4.80
2023-03-24T02:14:04.126Z,5.57
2023-03-24T02:16:43.659Z,6.90
2023-03-24T02:19:26.610Z,7.95
2023-03-24T02:22:15.923Z,5.90
2023-03-24T02:25:08.395Z,4.40
2023-03-24T02:28:00.053Z,4.88
2023-03-24T02:30:46.449Z,7.20
2023-03-24T02:33:25.238Z,4.38
2023-03-24T02:36:11.694Z,5.97
2023-03-24T02:39:18.294Z,6.68
2023-03-24T02:42:10.674Z,8.65
2023-03-24T02:45:17.384Z,5.75
2023-03-24T02:47:56.939Z,4.88
2023-03-24T02:50:41.414Z,7.38
2023-03-24T02:53:16.645Z,7.82
2023-03-24T02:56:30.095Z,6.20
2023-03-24T02:59:08.183Z,6.22
2023-03-24T03:01:54.237Z,5.72
2023-03-24T03:04:49.895Z,6.45
2023-03-24T03:07:21.947Z,5.15
2023-03-24T03:09:55.493Z,6.35
2023-03-24T03:12:24.763Z,5.30
2023-03-24T03:14:55.534Z,6.30
2023-03-24T03:17:30.731Z,7.03
2023-03-24T03:20:06.714Z,6.53
2023-03-24T03:22:49.686Z,6.28
2023-03-24T03:25:22.809Z,8.43
2023-03-24T03:27:53.091Z,7.88
2023-03-24T03:30:31.597Z,4.78
2023-03-24T03:33:04.413Z,10.57
2023-03-24T03:35:46.471Z,9.45
2023-03-24T03:38:23.310Z,7.13
2023-03-24T03:40:56.141Z,5.97
2023-03-24T03:43:30.596Z,7.60
2023-03-24T03:45:58.839Z,10.80
2023-03-24T03:48:32.444Z,7.22
2023-03-24T03:51:12.463Z,9.60
2023-03-24T03:53:49.176Z,12.82
2023-03-24T03:56:23.235Z,8.38
2023-03-24T03:59:04.166Z,8.93
2023-03-24T04:01:37.196Z,8.17
2023-03-24T04:05:18.708Z,9.10
2023-03-24T04:08:26.229Z,8.15
2023-03-24T04:11:10.537Z,9.35
2023-03-24T04:14:01.282Z,7.80
2023-03-24T04:16:46.181Z,8.50
2023-03-24T04:19:29.293Z,10.27
2023-03-24T04:22:17.294Z,8.80
2023-03-24T04:24:51.759Z,7.20
2023-03-24T04:27:38.701Z,8.77
2023-03-24T04:30:26.042Z,11.00
2023-03-24T04:33:04.200Z,11.68
2023-03-24T04:35:58.355Z,14.13
2023-03-24T04:38:38.405Z,8.15
2023-03-24T04:41:28.924Z,9.95
2023-03-24T04:44:11.047Z,10.75
2023-03-24T04:46:56.135Z,8.77
2023-03-24T04:49:27.325Z,11.90
2023-03-24T04:51:54.995Z,8.80
2023-03-24T04:54:26.199Z,10.93
2023-03-24T04:57:01.861Z,12.45
2023-03-24T04:59:48.615Z,12.73
2023-03-24T05:02:21.775Z,12.50
2023-03-24T05:04:56.244Z,10.57
2023-03-24T05:07:37.951Z,11.52
2023-03-24T05:10:16.332Z,11.98
2023-03-24T05:12:49.813Z,15.75
2023-03-24T05:15:37.528Z,9.93
2023-03-24T05:18:20.309Z,11.98
2023-03-24T05:20:47.632Z,13.02
2023-03-24T05:23:19.678Z,13.85
2023-03-24T05:25:49.092Z,12.65
2023-03-24T05:28:17.452Z,10.05
2023-03-24T05:30:44.880Z,12.20
2023-03-24T05:33:29.389Z,12.93
2023-03-24T05:35:57.898Z,14.07
2023-03-24T05:38:25.510Z,10.88
2023-03-24T05:40:58.961Z,10.63
2023-03-24T05:43:31.407Z,15.38
2023-03-24T05:46:08.410Z,14.23
2023-03-24T05:48:36.062Z,14.45
2023-03-24T05:51:25.271Z,15.35
2023-03-24T05:54:08.865Z,13.45
2023-03-24T05:56:40.682Z,15.80
2023-03-24T05:59:36.393Z,14.57
2023-03-24T06:02:26.863Z,16.85
2023-03-24T06:05:03.936Z,16.98
2023-03-24T06:07:35.051Z,12.63
2023-03-24T06:10:07.745Z,14.13
2023-03-24T06:12:46.956Z,13.52
2023-03-24T06:15:17.940Z,14.07
2023-03-24T06:17:47.929Z,16.75
2023-03-24T06:20:26.417Z,12.20
2023-03-24T06:23:08.041Z,19.13
2023-03-24T06:25:50.961Z,14.32
2023-03-24T06:28:30.440Z,19.77
2023-03-24T06:31:01.360Z,14.73
2023-03-24T06:33:38.822Z,19.35
2023-03-24T06:36:07.629Z,18.45
2023-03-24T06:38:34.982Z,13.20
2023-03-24T06:41:05.500Z,21.47
2023-03-24T06:43:33.165Z,13.48
2023-03-24T06:46:01.061Z,14.07
2023-03-24T06:48:29.755Z,18.45
2023-03-24T06:51:03.811Z,13.88
2023-03-24T06:53:31.409Z,16.48
2023-03-24T06:55:58.806Z,17.30
2023-03-24T06:58:29.280Z,16.95
2023-03-24T07:01:04.696Z,14.88
2023-03-24T07:03:55.126Z,18.63
2023-03-24T07:06:50.603Z,17.40
2023-03-24T07:09:27.966Z,17.90
2023-03-24T07:11:55.183Z,23.67
2023-03-24T07:14:26.101Z,19.77
2023-03-24T07:16:54.332Z,20.95
2023-03-24T07:19:50.727Z,17.60
2023-03-24T07:22:46.601Z,16.92
2023-03-24T07:25:36.720Z,17.30
2023-03-24T07:28:15.522Z,16.00
2023-03-24T07:30:43.465Z,15.60
2023-03-24T07:33:12.770Z,17.27
2023-03-24T07:35:42.751Z,20.90
2023-03-24T07:38:10.749Z,16.30
2023-03-24T07:40:38.550Z,21.17
2023-03-24T07:43:09.066Z,20.20
2023-03-24T07:45:51.318Z,15.63
2023-03-24T07:48:18.672Z,19.15
2023-03-24T07:50:46.268Z,17.67
2023-03-24T07:53:33.883Z,15.57
2023-03-24T07:56:02.254Z,14.57
2023-03-24T07:58:30.182Z,15.80
2023-03-24T08:01:14.556Z,14.05
2023-03-24T08:03:45.714Z,18.58
2023-03-24T08:06:16.478Z,25.42
2023-03-24T08:08:47.432Z,17.10
2023-03-24T08:11:14.823Z,19.75
2023-03-24T08:13:42.157Z,25.27
2023-03-24T08:16:09.841Z,15.93
2023-03-24T08:18:37.078Z,17.77
2023-03-24T08:21:04.637Z,21.45
2023-03-24T08:23:32.285Z,18.80
2023-03-24T08:25:59.575Z,22.60
2023-03-24T08:28:26.971Z,17.88
2023-03-24T08:30:54.360Z,19.73
2023-03-24T08:33:21.640Z,21.33
2023-03-24T08:35:49.173Z,17.35
2023-03-24T08:38:18.747Z,19.23
2023-03-24T08:40:47.458Z,16.48
2023-03-24T08:43:16.099Z,19.08
2023-03-24T08:45:43.605Z,21.67
2023-03-24T08:48:11.335Z,19.45
2023-03-24T08:53:11.615Z,18.17
2023-03-24T08:55:41.853Z,18.05
2023-03-24T08:58:17.020Z,19.85
2023-03-24T09:00:45.365Z,19.30
2023-03-24T09:03:18.352Z,21.45
2023-03-24T09:05:47.431Z,17.63
2023-03-24T09:08:16.535Z,16.80
2023-03-24T09:10:46.910Z,24.13
2023-03-24T09:13:14.656Z,20.50
2023-03-24T09:15:53.269Z,19.70
2023-03-24T09:18:21.836Z,19.52
2023-03-24T09:20:49.664Z,21.63
2023-03-24T09:23:19.429Z,13.80
2023-03-24T09:25:49.139Z,19.27
2023-03-24T09:28:16.714Z,17.48
2023-03-24T09:30:44.234Z,16.73
2023-03-24T09:33:11.829Z,23.00
2023-03-24T09:35:39.714Z,17.88
2023-03-24T09:38:07.113Z,19.00
2023-03-24T09:40:39.259Z,16.38
2023-03-24T09:43:17.517Z,18.80
2023-03-24T09:45:55.810Z,16.05
2023-03-24T09:48:39.730Z,22.77
2023-03-24T09:51:32.613Z,19.33
2023-03-24T09:54:15.423Z,16.60
2023-03-24T09:56:45.963Z,19.77
2023-03-24T09:59:33.271Z,19.95
2023-03-24T10:02:00.894Z,17.52
2023-03-24T10:04:29.478Z,19.60
2023-03-24T10:07:38.779Z,19.80
2023-03-24T10:10:19.975Z,15.90
2023-03-24T10:12:49.215Z,16.70
2023-03-24T10:15:41.237Z,18.57
2023-03-24T10:18:31.016Z,15.18
2023-03-24T10:21:08.996Z,16.80
2023-03-24T10:24:38.239Z,16.20
2023-03-24T10:27:31.386Z,16.83
2023-03-24T10:30:16.668Z,18.45
2023-03-24T10:32:44.824Z,18.02
2023-03-24T10:35:25.225Z,16.52
2023-03-24T10:37:52.550Z,19.05
2023-03-24T10:40:22.301Z,16.27
2023-03-24T10:42:49.934Z,16.13
2023-03-24T10:45:36.948Z,22.08
2023-03-24T10:48:04.629Z,19.08
2023-03-24T10:50:33.602Z,17.50
2023-03-24T10:53:01.131Z,14.25
2023-03-24T10:55:36.480Z,13.70
2023-03-24T10:58:20.555Z,19.63
2023-03-24T11:00:48.142Z,19.50
2023-03-24T11:03:18.273Z,13.75
2023-03-24T11:08:37.729Z,15.13
2023-03-24T11:11:29.333Z,17.35
2023-03-24T11:14:04.509Z,18.77
2023-03-24T11:16:37.201Z,30.35
2023-03-24T11:19:07.026Z,15.30
2023-03-24T11:21:37.796Z,13.32
2023-03-24T11:24:14.585Z,19.10
2023-03-24T11:26:46.451Z,13.63
2023-03-24T11:29:15.092Z,13.80
2023-03-24T11:31:42.605Z,12.45
2023-03-24T11:34:25.975Z,14.60
2023-03-24T11:36:56.796Z,20.15
2023-03-24T11:39:32.990Z,15.57
2023-03-24T11:42:12.417Z,14.45
2023-03-24T11:44:39.846Z,15.40
2023-03-24T11:47:16.506Z,13.15
2023-03-24T11:49:56.037Z,12.77
2023-03-24T11:52:28.960Z,16.95
2023-03-24T11:54:56.413Z,16.08
2023-03-24T11:57:47.039Z,12.38
2023-03-24T12:00:34.916Z,13.85
2023-03-24T12:03:32.094Z,15.07
2023-03-24T12:06:38.274Z,13.93
2023-03-24T12:09:15.013Z,13.45
2023-03-24T12:12:08.074Z,14.15
2023-03-24T12:14:51.675Z,10.23
2023-03-24T12:17:56.715Z,11.68
2023-03-24T12:20:46.441Z,5.05
2023-03-24T12:23:29.303Z,5.18
2023-03-24T12:26:05.439Z,3.78
2023-03-24T12:28:51.485Z,3.90
2023-03-24T12:31:53.285Z,5.75
2023-03-24T12:34:47.651Z,6.72
2023-03-24T12:37:46.613Z,6.70
2023-03-24T12:40:20.091Z,6.18
2023-03-24T12:42:48.196Z,8.00
2023-03-24T12:45:27.582Z,9.27
2023-03-24T12:48:10.794Z,9.05
2023-03-24T12:51:20.291Z,9.13
2023-03-24T12:54:17.339Z,11.30
2023-03-24T12:56:50.229Z,11.00
2023-03-24T12:59:41.848Z,11.27
2023-03-24T13:02:24.494Z,16.17
2023-03-24T13:04:55.788Z,14.82
2023-03-24T13:07:28.844Z,17.27
2023-03-24T13:09:56.081Z,14.57
2023-03-24T13:12:44.821Z,17.48
2023-03-24T13:15:12.108Z,16.20
2023-03-24T13:17:45.218Z,15.18
2023-03-24T13:20:15.398Z,15.98
2023-03-24T13:25:21.264Z,11.75
2023-03-24T13:27:51.161Z,9.38
2023-03-24T13:30:31.506Z,7.85
2023-03-24T13:33:02.678Z,17.83
2023-03-24T13:35:50.767Z,19.20
2023-03-24T13:41:07.949Z,12.13
2023-03-24T13:43:35.319Z,11.50
2023-03-24T13:46:10.851Z,12.57
2023-03-24T13:48:43.688Z,9.25
2023-03-24T13:51:34.650Z,10.20
2023-03-24T13:54:18.258Z,10.73
2023-03-24T13:57:07.431Z,13.48
2023-03-24T13:59:41.092Z,11.73
2023-03-24T14:02:38.273Z,13.45
2023-03-24T14:05:09.744Z,13.57
2023-03-24T14:07:40.258Z,11.32
2023-03-24T14:10:16.659Z,13.73
2023-03-24T14:12:59.485Z,16.75
2023-03-24T14:15:35.553Z,9.43
2023-03-24T14:18:25.487Z,9.63
2023-03-24T14:26:15.379Z,8.55
2023-03-24T14:28:44.838Z,10.88
2023-03-24T14:31:18.509Z,9.98
2023-03-24T14:33:58.257Z,13.25
2023-03-24T14:36:30.668Z,11.60
2023-03-24T14:39:07.384Z,10.13
2023-03-24T14:41:39.217Z,13.80
2023-03-24T14:44:06.661Z,12.30
2023-03-24T14:46:35.841Z,12.00
2023-03-24T14:49:25.676Z,9.10
2023-03-24T14:52:12.422Z,10.68
2023-03-24T14:54:44.057Z,13.27
2023-03-24T14:57:40.714Z,11.85
2023-03-24T15:00:19.983Z,10.20
2023-03-24T15:02:52.541Z,9.75
2023-03-24T15:05:31.503Z,8.30
2023-03-24T15:08:18.628Z,11.40
2023-03-24T15:10:56.516Z,10.40
2023-03-24T15:13:29.752Z,11.63
2023-03-24T15:15:57.378Z,11.10
2023-03-24T15:18:25.766Z,11.98
2023-03-24T15:20:53.782Z,8.35
2023-03-24T15:23:26.627Z,8.05
2023-03-24T15:25:55.801Z,13.38
2023-03-24T15:28:28.931Z,13.38
2023-03-24T15:30:59.370Z,10.82
2023-03-24T15:33:31.539Z,8.40
2023-03-24T15:36:02.315Z,6.60
2023-03-24T15:38:32.013Z,6.97
2023-03-24T15:41:08.053Z,6.75
2023-03-24T15:43:44.596Z,8.10
2023-03-24T15:46:29.355Z,7.15
2023-03-24T15:48:59.055Z,6.95
2023-03-24T15:51:49.133Z,5.30
2023-03-24T15:54:22.830Z,10.30
2023-03-24T15:57:16.117Z,12.93
2023-03-24T15:59:49.724Z,12.00
2023-03-24T16:02:39.068Z,9.23
2023-03-24T16:05:17.594Z,12.60
2023-03-24T16:07:44.974Z,11.18
2023-03-24T16:10:29.005Z,8.63
2023-03-24T16:12:56.636Z,11.38
2023-03-24T16:15:24.065Z,9.75
2023-03-24T16:17:51.491Z,7.53
2023-03-24T16:20:20.796Z,14.07
2023-03-24T16:22:48.043Z,9.85
2023-03-24T16:25:16.201Z,7.60
2023-03-24T16:27:43.374Z,8.10
2023-03-24T16:30:22.292Z,9.35
2023-03-24T16:32:49.735Z,9.50
2023-03-24T16:35:17.532Z,9.50
2023-03-24T16:37:45.254Z,7.50
2023-03-24T16:40:21.204Z,7.63
2023-03-24T16:42:48.601Z,11.07
2023-03-24T16:45:15.891Z,9.45
2023-03-24T16:47:43.251Z,12.60
2023-03-24T16:50:27.839Z,11.90
2023-03-24T16:52:55.356Z,8.95
2023-03-24T16:55:22.675Z,14.27
2023-03-24T16:57:49.951Z,12.38
2023-03-24T17:00:17.744Z,10.40
2023-03-24T17:02:48.301Z,8.30
2023-03-24T17:05:22.059Z,9.50
2023-03-24T17:07:49.500Z,9.15
2023-03-24T17:10:18.306Z,9.50
2023-03-24T17:12:47.205Z,8.85
2023-03-24T17:15:21.336Z,8.82
2023-03-24T17:17:48.915Z,10.80
2023-03-24T17:20:16.711Z,10.98
2023-03-24T17:22:45.850Z,9.60
2023-03-24T17:25:15.664Z,7.10
2023-03-24T17:27:43.912Z,7.82
2023-03-24T17:30:16.442Z,9.60
2023-03-24T17:32:44.157Z,8.48
2023-03-24T17:35:13.376Z,8.32
2023-03-24T17:37:41.310Z,6.70
2023-03-24T17:40:10.962Z,12.27
2023-03-24T17:42:39.352Z,11.90
2023-03-24T17:45:08.166Z,11.35
2023-03-24T17:47:35.954Z,9.25
2023-03-24T17:50:10.402Z,11.20
2023-03-24T17:52:39.534Z,7.88
2023-03-24T17:55:07.507Z,11.93
2023-03-24T17:57:35.110Z,7.28
2023-03-24T18:00:03.726Z,7.65
2023-03-24T18:02:35.087Z,7.88
2023-03-24T18:05:03.422Z,7.40
2023-03-24T18:07:30.656Z,5.93
2023-03-24T18:09:58.649Z,9.93
2023-03-24T18:12:27.462Z,7.72
2023-03-24T18:14:54.746Z,11.18
2023-03-24T18:17:22.080Z,8.20
2023-03-24T18:19:50.375Z,8.25
2023-03-24T18:22:17.868Z,6.93
2023-03-24T18:24:46.738Z,5.93
2023-03-24T18:27:14.030Z,11.98
2023-03-24T18:29:41.436Z,7.85
2023-03-24T18:32:08.865Z,7.25
2023-03-24T18:34:38.922Z,8.45
2023-03-24T18:39:35.240Z,7.75
2023-03-24T18:42:02.462Z,11.13
2023-03-24T18:44:30.255Z,10.13
2023-03-24T18:46:58.002Z,5.78
2023-03-24T18:49:25.652Z,10.23
2023-03-24T18:51:53.177Z,10.20
2023-03-24T18:54:20.600Z,8.60
2023-03-24T18:56:47.855Z,6.78
2023-03-24T18:59:15.990Z,7.85
2023-03-24T19:01:48.642Z,8.93
2023-03-24T19:04:17.390Z,10.88
2023-03-24T19:06:44.660Z,9.45
2023-03-24T19:09:13.444Z,9.85
2023-03-24T19:11:43.453Z,10.80
2023-03-24T19:16:38.487Z,8.98
2023-03-24T19:19:06.958Z,9.57
2023-03-24T19:21:34.239Z,7.80
2023-03-24T19:24:01.577Z,11.70
2023-03-24T19:26:28.813Z,8.07
2023-03-24T19:28:57.500Z,9.70
2023-03-24T19:31:25.098Z,9.45
2023-03-24T19:33:53.685Z,8.70
2023-03-24T19:36:21.032Z,12.25
2023-03-24T19:38:48.382Z,7.10
2023-03-24T19:41:16.312Z,10.82
2023-03-24T19:43:43.664Z,9.15
2023-03-24T19:46:11.563Z,6.10
2023-03-24T19:48:39.275Z,7.95
2023-03-24T19:51:06.526Z,6.55
2023-03-24T19:53:33.950Z,8.82
2023-03-24T19:56:02.091Z,9.07
2023-03-24T19:58:30.331Z,11.43
2023-03-24T20:00:57.544Z,11.32
2023-03-24T20:03:25.118Z,9.10
2023-03-24T20:05:52.789Z,9.90
2023-03-24T20:08:20.654Z,11.68
2023-03-24T20:10:47.950Z,5.78
2023-03-24T20:13:15.281Z,10.35
2023-03-24T20:15:42.662Z,11.15
2023-03-24T20:18:11.036Z,7.40
2023-03-24T20:20:38.942Z,11.10
2023-03-24T20:23:06.516Z,10.07
2023-03-24T20:25:33.774Z,9.25
2023-03-24T20:28:01.532Z,8.25
2023-03-24T20:30:31.174Z,6.28
2023-03-24T20:32:58.614Z,7.97
2023-03-24T20:35:26.150Z,7.93
2023-03-24T20:37:53.469Z,5.82
2023-03-24T20:40:21.858Z,8.38
2023-03-24T20:42:49.392Z,7.32
2023-03-24T20:45:16.909Z,6.93
2023-03-24T20:47:44.447Z,5.25
2023-03-24T20:50:11.835Z,4.57
2023-03-24T20:52:39.135Z,5.85
2023-03-24T20:55:08.686Z,3.53
2023-03-24T20:57:36.192Z,4.55
2023-03-24T21:00:10.095Z,5.88
2023-03-24T21:02:38.252Z,5.45
2023-03-24T21:05:06.546Z,3.90
2023-03-24T21:07:37.252Z,3.75
2023-03-24T21:10:06.431Z,3.35
2023-03-24T21:12:34.475Z,3.73
2023-03-24T21:15:02.441Z,5.97
2023-03-24T21:17:32.396Z,6.03
2023-03-24T21:20:13.603Z,5.40
2023-03-24T21:22:53.640Z,3.15
2023-03-24T21:27:55.720Z,8.98
2023-03-24T21:30:25.169Z,3.67
2023-03-24T21:32:54.058Z,5.82
2023-03-24T21:35:22.525Z,6.55
2023-03-24T21:37:53.546Z,8.07
2023-03-24T21:40:23.642Z,6.18
2023-03-24T21:42:53.608Z,6.05
2023-03-24T21:47:49.441Z,9.23
2023-03-24T21:50:23.109Z,5.95
2023-03-24T21:52:53.253Z,3.55
2023-03-24T21:55:22.247Z,6.03
2023-03-24T21:57:50.794Z,6.20
2023-03-24T22:00:20.896Z,6.85
2023-03-24T22:02:52.251Z,6.78
2023-03-24T22:05:21.945Z,7.57
2023-03-24T22:07:50.089Z,6.60
2023-03-24T22:10:22.693Z,5.47
2023-03-24T22:12:53.763Z,9.10
2023-03-24T22:15:21.278Z,7.70
2023-03-24T22:17:49.150Z,8.20
2023-03-24T22:20:19.398Z,7.85
2023-03-24T22:22:47.299Z,8.82
2023-03-24T22:25:17.762Z,7.65
2023-03-24T22:27:45.830Z,9.07
2023-03-24T22:30:13.769Z,8.90
2023-03-24T22:32:41.655Z,8.75
2023-03-24T22:35:09.978Z,8.95
2023-03-24T22:37:37.238Z,14.02
2023-03-24T22:40:07.206Z,10.07
2023-03-24T22:42:34.497Z,12.30
2023-03-24T22:45:01.890Z,11.27
2023-03-24T22:47:29.256Z,11.63
2023-03-24T22:49:56.528Z,7.60
2023-03-24T22:52:23.783Z,13.18
2023-03-24T22:54:51.086Z,9.65
2023-03-24T22:57:18.874Z,11.05
2023-03-24T22:59:46.219Z,10.38
2023-03-24T23:02:13.603Z,9.43
2023-03-24T23:04:41.837Z,11.02
2023-03-24T23:07:09.189Z,11.75
2023-03-24T23:09:36.606Z,16.70
2023-03-24T23:12:04.730Z,11.60
2023-03-24T23:14:32.045Z,9.70
2023-03-24T23:16:59.310Z,9.75
2023-03-24T23:19:27.419Z,8.52
2023-03-24T23:21:54.655Z,13.68
2023-03-24T23:24:22.196Z,11.55
2023-03-24T23:26:49.448Z,16.35
2023-03-24T23:29:17.230Z,10.55
2023-03-24T23:31:44.641Z,12.18
2023-03-24T23:34:12.057Z,17.42
2023-03-24T23:36:45.028Z,12.02
2023-03-24T23:39:12.419Z,13.68
2023-03-24T23:41:39.711Z,13.50
2023-03-24T23:44:07.031Z,13.25
2023-03-24T23:46:34.594Z,16.33
2023-03-24T23:49:02.076Z,12.00
2023-03-24T23:51:29.377Z,13.68
2023-03-24T23:53:56.576Z,14.30
2023-03-24T23:56:23.935Z,13.18
2023-03-24T23:58:51.193Z,12.02
